createdAt,value
2023-10-03T00:00:59.076Z,16.30
2023-10-03T00:03:28.546Z,14.83
2023-10-03T00:05:57.256Z,15.17
2023-10-03T00:08:26.373Z,14.07
2023-10-03T00:10:55.283Z,14.77
2023-10-03T00:13:27.892Z,15.30
2023-10-03T00:15:57.574Z,14.20
2023-10-03T00:18:25.880Z,15.03
2023-10-03T00:20:54.063Z,15.83
2023-10-03T00:23:22.442Z,14.70
2023-10-03T00:25:51.157Z,14.80
2023-10-03T00:28:19.312Z,15.23
2023-10-03T00:30:49.498Z,14.80
2023-10-03T00:33:19.154Z,14.00
2023-10-03T00:35:48.263Z,14.40
2023-10-03T00:38:16.657Z,15.33
2023-10-03T00:40:52.248Z,14.53
2023-10-03T00:43:21.224Z,14.07
2023-10-03T00:45:50.782Z,14.97
2023-10-03T00:48:23.456Z,14.40
2023-10-03T00:50:54.470Z,13.53
2023-10-03T00:53:22.972Z,14.13
2023-10-03T00:55:51.533Z,13.30
2023-10-03T00:58:29.642Z,14.73
2023-10-03T01:00:59.359Z,14.03
2023-10-03T01:03:32.317Z,13.80
2023-10-03T01:06:06.251Z,14.00
2023-10-03T01:08:38.063Z,15.20
2023-10-03T01:11:07.310Z,14.30
2023-10-03T01:13:36.647Z,15.80
2023-10-03T01:16:06.980Z,12.97
2023-10-03T01:18:39.253Z,13.20
2023-10-03T01:21:07.879Z,14.67
2023-10-03T01:23:38.705Z,14.33
2023-10-03T01:26:06.828Z,15.20
2023-10-03T01:28:36.255Z,15.17
2023-10-03T01:31:04.442Z,14.60
2023-10-03T01:33:35.217Z,13.97
2023-10-03T01:36:04.760Z,15.67
2023-10-03T01:38:32.897Z,15.20
2023-10-03T01:41:02.549Z,17.13
2023-10-03T01:43:30.879Z,17.17
2023-10-03T01:45:59.013Z,16.00
2023-10-03T01:48:28.277Z,15.93
2023-10-03T01:50:58.817Z,15.63
2023-10-03T01:53:31.140Z,15.90
2023-10-03T01:56:04.620Z,14.97
2023-10-03T01:58:33.322Z,15.60
2023-10-03T02:01:01.898Z,16.50
2023-10-03T02:03:31.261Z,16.13
2023-10-03T02:05:59.636Z,16.07
2023-10-03T02:08:29.732Z,16.30
2023-10-03T02:10:57.807Z,16.13
2023-10-03T02:13:29.982Z,14.97
2023-10-03T02:15:59.911Z,15.20
2023-10-03T02:18:28.190Z,15.40
2023-10-03T02:21:02.437Z,15.07
2023-10-03T02:23:34.290Z,15.03
2023-10-03T02:26:08.852Z,15.53
2023-10-03T02:28:38.449Z,14.83
2023-10-03T02:31:09.114Z,14.03
2023-10-03T02:33:38.494Z,14.60
2023-10-03T02:36:08.387Z,14.57
2023-10-03T02:38:38.500Z,14.57
2023-10-03T02:41:08.638Z,14.80
2023-10-03T02:43:43.400Z,14.63
2023-10-03T02:46:13.590Z,13.60
2023-10-03T02:48:42.468Z,13.57
2023-10-03T02:51:14.392Z,13.40
2023-10-03T02:53:42.913Z,15.37
2023-10-03T02:56:10.965Z,14.43
2023-10-03T02:58:41.474Z,15.07
2023-10-03T03:01:10.435Z,15.53
2023-10-03T03:03:39.807Z,14.73
2023-10-03T03:06:15.177Z,14.30
2023-10-03T03:08:45.375Z,14.87
2023-10-03T03:11:13.938Z,15.93
2023-10-03T03:13:43.616Z,15.07
2023-10-03T03:16:16.232Z,15.90
2023-10-03T03:18:48.347Z,16.70
2023-10-03T03:21:21.724Z,16.50
2023-10-03T03:23:58.993Z,15.50
2023-10-03T03:26:39.028Z,15.00
2023-10-03T03:29:21.839Z,15.67
2023-10-03T03:31:53.582Z,15.47
2023-10-03T03:34:22.085Z,15.33
2023-10-03T03:36:51.406Z,15.30
2023-10-03T03:39:22.247Z,17.03
2023-10-03T03:41:51.241Z,15.83
2023-10-03T03:44:20.771Z,16.07
2023-10-03T03:46:49.467Z,16.83
2023-10-03T03:49:20.349Z,17.00
2023-10-03T03:51:48.809Z,16.33
2023-10-03T03:54:16.866Z,15.90
2023-10-03T03:56:46.798Z,16.67
2023-10-03T03:59:14.973Z,16.23
2023-10-03T04:01:45.023Z,18.03
2023-10-03T04:04:13.779Z,17.33
2023-10-03T04:06:43.664Z,15.33
2023-10-03T04:09:12.961Z,17.63
2023-10-03T04:11:43.389Z,16.10
2023-10-03T04:14:11.838Z,15.73
2023-10-03T04:16:45.246Z,16.43
2023-10-03T04:19:15.301Z,15.13
2023-10-03T04:21:46.084Z,16.37
2023-10-03T04:24:16.867Z,16.33
2023-10-03T04:26:45.533Z,15.30
2023-10-03T04:29:16.029Z,15.87
2023-10-03T04:31:45.019Z,16.93
2023-10-03T04:34:17.786Z,15.97
2023-10-03T04:36:48.717Z,16.60
2023-10-03T04:39:17.227Z,17.57
2023-10-03T04:41:46.703Z,17.27
2023-10-03T04:44:18.711Z,16.00
2023-10-03T04:46:47.350Z,15.40
2023-10-03T04:49:16.287Z,17.67
2023-10-03T04:51:47.955Z,16.70
2023-10-03T04:54:23.907Z,17.20
2023-10-03T04:56:52.143Z,15.93
2023-10-03T04:59:22.654Z,15.63
2023-10-03T05:01:51.196Z,16.67
2023-10-03T05:04:19.893Z,15.20
2023-10-03T05:06:49.119Z,16.97
2023-10-03T05:09:19.140Z,17.90
2023-10-03T05:11:51.692Z,17.57
2023-10-03T05:14:20.085Z,17.83
2023-10-03T05:16:51.996Z,18.27
2023-10-03T05:19:20.446Z,17.47
2023-10-03T05:21:49.274Z,18.73
2023-10-03T05:24:17.722Z,17.07
2023-10-03T05:26:46.159Z,17.93
2023-10-03T05:29:17.142Z,17.47
2023-10-03T05:31:45.267Z,18.00
2023-10-03T05:34:13.964Z,19.03
2023-10-03T05:36:42.051Z,16.33
2023-10-03T05:39:13.005Z,17.63
2023-10-03T05:41:42.625Z,17.80
2023-10-03T05:44:13.314Z,17.20
2023-10-03T05:46:45.421Z,16.80
2023-10-03T05:49:15.366Z,17.93
2023-10-03T05:51:43.826Z,17.93
2023-10-03T05:54:14.082Z,18.87
2023-10-03T05:56:42.319Z,17.27
2023-10-03T05:59:10.458Z,18.50
2023-10-03T06:01:39.259Z,18.43
2023-10-03T06:04:09.651Z,18.33
2023-10-03T06:06:38.351Z,17.43
2023-10-03T06:09:06.656Z,16.83
2023-10-03T06:11:36.261Z,18.00
2023-10-03T06:14:05.105Z,19.40
2023-10-03T06:16:33.561Z,21.00
2023-10-03T06:19:02.519Z,18.13
2023-10-03T06:21:33.815Z,17.47
2023-10-03T06:24:03.023Z,17.83
2023-10-03T06:26:32.914Z,17.80
2023-10-03T06:29:03.461Z,17.57
2023-10-03T06:31:34.556Z,16.93
2023-10-03T06:34:07.439Z,17.83
2023-10-03T06:36:39.069Z,15.47
2023-10-03T06:39:09.564Z,16.43
2023-10-03T06:41:39.414Z,18.23
2023-10-03T06:44:07.586Z,19.80
2023-10-03T06:46:39.289Z,16.23
2023-10-03T06:49:07.787Z,16.27
2023-10-03T06:51:38.172Z,16.27
2023-10-03T06:54:06.485Z,16.43
2023-10-03T06:56:36.607Z,16.37
2023-10-03T06:59:05.364Z,15.50
2023-10-03T07:01:33.360Z,15.87
2023-10-03T07:04:03.654Z,14.97
2023-10-03T07:06:33.904Z,15.73
2023-10-03T07:09:07.422Z,17.83
2023-10-03T07:11:35.877Z,16.97
2023-10-03T07:14:04.082Z,18.97
2023-10-03T07:16:38.590Z,18.27
2023-10-03T07:19:06.716Z,20.03
2023-10-03T07:21:36.191Z,19.10
2023-10-03T07:24:06.730Z,18.93
2023-10-03T07:26:34.832Z,15.40
2023-10-03T07:29:04.105Z,16.33
2023-10-03T07:31:34.636Z,15.40
2023-10-03T07:34:03.304Z,17.47
2023-10-03T07:36:31.383Z,16.90
2023-10-03T07:38:59.474Z,17.23
2023-10-03T07:41:29.607Z,14.33
2023-10-03T07:43:57.765Z,15.27
2023-10-03T07:46:27.783Z,15.20
2023-10-03T07:48:56.493Z,18.43
2023-10-03T07:51:27.180Z,19.23
2023-10-03T07:53:56.526Z,19.60
2023-10-03T07:56:31.681Z,18.83
2023-10-03T07:59:05.338Z,16.27
2023-10-03T08:01:57.466Z,13.63
2023-10-03T08:04:33.008Z,12.80
2023-10-03T08:07:01.698Z,11.53
2023-10-03T08:09:31.213Z,11.30
2023-10-03T08:12:00.446Z,11.20
2023-10-03T08:14:35.149Z,11.57
2023-10-03T08:17:04.631Z,10.00
2023-10-03T08:19:32.885Z,9.47
2023-10-03T08:22:00.967Z,9.57
2023-10-03T08:24:30.077Z,8.70
2023-10-03T08:27:01.220Z,9.43
2023-10-03T08:29:31.747Z,9.47
2023-10-03T08:32:01.726Z,9.20
2023-10-03T08:34:31.666Z,8.53
2023-10-03T08:37:01.550Z,8.40
2023-10-03T08:39:33.723Z,8.57
2023-10-03T08:42:13.603Z,7.90
2023-10-03T08:44:54.149Z,7.67
2023-10-03T08:47:29.874Z,7.43
2023-10-03T08:50:12.122Z,7.47
2023-10-03T08:52:48.364Z,7.77
2023-10-03T08:55:20.674Z,7.53
2023-10-03T08:57:49.884Z,7.50
2023-10-03T09:00:26.427Z,7.20
2023-10-03T09:03:00.814Z,7.43
2023-10-03T09:05:29.365Z,7.80
2023-10-03T09:07:59.845Z,7.03
2023-10-03T09:10:30.352Z,7.37
2023-10-03T09:13:05.114Z,7.40
2023-10-03T09:15:38.991Z,7.23
2023-10-03T09:18:11.520Z,6.80
2023-10-03T09:20:43.758Z,7.17
2023-10-03T09:23:16.223Z,6.93
2023-10-03T09:25:49.896Z,6.80
2023-10-03T09:28:18.073Z,7.73
2023-10-03T09:30:47.409Z,8.53
2023-10-03T09:33:18.211Z,9.93
2023-10-03T09:35:58.827Z,25.20
2023-10-03T09:38:43.445Z,9.37
2023-10-03T09:41:18.344Z,6.80
2023-10-03T09:43:51.987Z,6.17
2023-10-03T09:46:27.506Z,6.90
2023-10-03T09:48:56.330Z,6.97
2023-10-03T09:51:47.444Z,7.13
2023-10-03T09:54:25.922Z,6.87
2023-10-03T09:56:56.794Z,6.67
2023-10-03T09:59:34.008Z,7.07
2023-10-03T10:02:04.106Z,6.67
2023-10-03T10:04:32.634Z,6.73
2023-10-03T10:07:16.018Z,7.00
2023-10-03T10:10:00.531Z,7.73
2023-10-03T10:12:29.898Z,6.30
2023-10-03T10:15:14.767Z,6.80
2023-10-03T10:17:50.928Z,6.63
2023-10-03T10:20:28.332Z,6.07
2023-10-03T10:23:21.692Z,6.77
2023-10-03T10:25:59.856Z,7.03
2023-10-03T10:28:35.516Z,6.60
2023-10-03T10:31:24.380Z,6.67
2023-10-03T10:34:33.693Z,5.80
2023-10-03T10:37:06.501Z,6.63
2023-10-03T10:40:11.526Z,6.30
2023-10-03T10:43:03.152Z,6.47
2023-10-03T10:45:39.241Z,6.57
2023-10-03T10:48:08.967Z,6.57
2023-10-03T10:51:14.053Z,6.17
2023-10-03T10:53:48.275Z,6.90
2023-10-03T10:56:16.773Z,5.57
2023-10-03T10:59:04.877Z,6.10
2023-10-03T11:01:39.728Z,7.00
2023-10-03T11:04:08.547Z,6.33
2023-10-03T11:06:39.655Z,6.72
2023-10-03T11:09:14.217Z,6.23
2023-10-03T11:11:42.421Z,6.00
2023-10-03T11:14:10.632Z,6.00
2023-10-03T11:16:39.967Z,6.13
2023-10-03T11:19:08.677Z,6.07
2023-10-03T11:21:36.790Z,5.83
2023-10-03T11:24:17.174Z,5.50
2023-10-03T11:26:56.006Z,5.83
2023-10-03T11:29:37.259Z,5.32
2023-10-03T11:32:06.548Z,4.90
2023-10-03T11:34:37.218Z,5.33
2023-10-03T11:37:06.110Z,5.60
2023-10-03T11:39:41.342Z,5.73
2023-10-03T11:42:10.912Z,5.57
2023-10-03T11:44:39.144Z,5.40
2023-10-03T11:47:07.280Z,5.53
2023-10-03T11:49:35.392Z,5.30
2023-10-03T11:52:04.219Z,5.50
2023-10-03T11:54:33.194Z,5.20
2023-10-03T11:57:02.715Z,4.93
2023-10-03T11:59:30.767Z,4.83
2023-10-03T12:02:01.112Z,5.32
2023-10-03T12:04:31.155Z,5.00
2023-10-03T12:06:59.348Z,5.17
2023-10-03T12:09:27.390Z,4.87
2023-10-03T12:11:56.834Z,4.97
2023-10-03T12:14:26.302Z,4.60
2023-10-03T12:16:54.358Z,4.80
2023-10-03T12:19:22.549Z,4.97
2023-10-03T12:21:50.582Z,5.87
2023-10-03T12:24:19.235Z,4.13
2023-10-03T12:26:47.397Z,4.27
2023-10-03T12:29:15.395Z,5.10
2023-10-03T12:31:45.541Z,2.90
2023-10-03T12:34:13.720Z,2.97
2023-10-03T12:36:43.164Z,3.13
2023-10-03T12:39:13.217Z,4.13
2023-10-03T12:41:41.622Z,3.47
2023-10-03T12:44:09.682Z,4.00
2023-10-03T12:46:38.059Z,3.87
2023-10-03T12:49:08.956Z,3.53
2023-10-03T12:51:37.044Z,3.70
2023-10-03T12:54:07.353Z,3.70
2023-10-03T12:56:35.544Z,3.43
2023-10-03T12:59:03.878Z,3.90
2023-10-03T13:01:32.316Z,4.07
2023-10-03T13:04:01.437Z,4.87
2023-10-03T13:06:31.795Z,4.00
2023-10-03T13:09:01.777Z,4.50
2023-10-03T13:11:29.984Z,4.20
2023-10-03T13:13:59.531Z,4.77
2023-10-03T13:16:27.623Z,4.97
2023-10-03T13:18:56.324Z,4.73
2023-10-03T13:21:25.193Z,4.47
2023-10-03T13:23:55.634Z,5.13
2023-10-03T13:26:23.933Z,5.63
2023-10-03T13:28:53.186Z,5.67
2023-10-03T13:31:21.248Z,5.47
2023-10-03T13:33:53.444Z,5.70
2023-10-03T13:36:21.746Z,5.40
2023-10-03T13:38:51.770Z,6.07
2023-10-03T13:41:21.172Z,6.43
2023-10-03T13:43:49.483Z,7.17
2023-10-03T13:46:18.248Z,6.27
2023-10-03T13:48:46.475Z,6.77
2023-10-03T13:51:16.047Z,6.77
2023-10-03T13:53:44.916Z,8.50
2023-10-03T13:56:12.913Z,8.47
2023-10-03T13:58:42.219Z,7.90
2023-10-03T14:01:14.441Z,8.10
2023-10-03T14:03:43.909Z,6.40
2023-10-03T14:06:16.478Z,6.20
2023-10-03T14:08:45.256Z,4.90
2023-10-03T14:11:21.793Z,4.03
2023-10-03T14:13:54.991Z,3.63
2023-10-03T14:16:23.593Z,2.97
2023-10-03T14:18:52.389Z,2.80
2023-10-03T14:21:26.504Z,2.50
2023-10-03T14:24:00.313Z,3.10
2023-10-03T14:26:29.026Z,2.60
2023-10-03T14:28:58.909Z,7.97
2023-10-03T14:31:27.657Z,2.80
2023-10-03T14:33:55.755Z,2.30
2023-10-03T14:36:23.672Z,2.67
2023-10-03T14:38:52.090Z,3.60
2023-10-03T14:41:20.344Z,2.00
2023-10-03T14:43:49.122Z,2.87
2023-10-03T14:46:18.545Z,2.10
2023-10-03T14:48:46.782Z,2.10
2023-10-03T14:51:15.108Z,2.93
2023-10-03T14:53:53.465Z,2.30
2023-10-03T14:56:22.374Z,2.70
2023-10-03T14:58:50.366Z,2.10
2023-10-03T15:01:19.716Z,2.10
2023-10-03T15:03:51.886Z,2.63
2023-10-03T15:06:20.096Z,2.30
2023-10-03T15:08:49.637Z,2.20
2023-10-03T15:11:17.706Z,2.50
2023-10-03T15:13:45.973Z,2.33
2023-10-03T15:16:15.533Z,2.37
2023-10-03T15:18:45.195Z,2.30
2023-10-03T15:21:13.523Z,2.50
2023-10-03T15:23:41.708Z,2.47
2023-10-03T15:26:09.832Z,2.60
2023-10-03T15:28:38.052Z,2.70
2023-10-03T15:31:06.139Z,2.77
2023-10-03T15:33:35.283Z,2.80
2023-10-03T15:36:05.307Z,2.20
2023-10-03T15:38:36.526Z,2.87
2023-10-03T15:41:05.939Z,2.73
2023-10-03T15:43:33.961Z,2.40
2023-10-03T15:46:01.992Z,2.30
2023-10-03T15:48:30.803Z,2.47
2023-10-03T15:50:58.921Z,2.33
2023-10-03T15:53:30.233Z,2.40
2023-10-03T15:55:59.718Z,2.20
2023-10-03T15:58:29.036Z,2.50
2023-10-03T16:00:59.928Z,1.93
2023-10-03T16:03:28.330Z,2.40
2023-10-03T16:05:58.593Z,2.23
2023-10-03T16:08:30.694Z,2.27
2023-10-03T16:10:58.776Z,2.10
2023-10-03T16:13:26.753Z,2.10
2023-10-03T16:15:54.757Z,2.27
2023-10-03T16:18:22.886Z,2.30
2023-10-03T16:20:50.953Z,2.30
2023-10-03T16:23:18.951Z,2.40
2023-10-03T16:25:48.337Z,2.73
2023-10-03T16:28:17.424Z,2.33
2023-10-03T16:30:45.620Z,2.60
2023-10-03T16:33:14.138Z,2.50
2023-10-03T16:35:42.384Z,3.27
2023-10-03T16:38:10.469Z,5.23
2023-10-03T16:40:38.420Z,4.50
2023-10-03T16:43:08.604Z,4.40
2023-10-03T16:45:38.617Z,12.20
2023-10-03T16:48:09.551Z,8.10
2023-10-03T16:50:38.904Z,4.03
2023-10-03T16:53:09.140Z,3.47
2023-10-03T16:55:41.846Z,2.93
2023-10-03T16:58:13.702Z,3.47
2023-10-03T17:00:42.483Z,3.30
2023-10-03T17:03:10.648Z,3.70
2023-10-03T17:05:38.690Z,3.60
2023-10-03T17:08:07.024Z,4.20
2023-10-03T17:10:35.551Z,3.43
2023-10-03T17:13:06.898Z,3.50
2023-10-03T17:15:36.423Z,3.33
2023-10-03T17:18:04.934Z,3.13
2023-10-03T17:20:34.066Z,3.47
2023-10-03T17:23:02.431Z,3.30
2023-10-03T17:25:32.113Z,3.33
2023-10-03T17:28:02.775Z,2.77
2023-10-03T17:30:30.871Z,3.10
2023-10-03T17:33:03.272Z,3.23
2023-10-03T17:35:32.856Z,3.30
2023-10-03T17:38:00.974Z,3.67
2023-10-03T17:40:28.985Z,3.00
2023-10-03T17:43:00.319Z,3.60
2023-10-03T17:45:30.006Z,2.70
2023-10-03T17:48:02.626Z,2.73
2023-10-03T17:50:30.760Z,2.90
2023-10-03T17:52:58.741Z,2.97
2023-10-03T17:55:26.729Z,2.80
2023-10-03T17:57:54.872Z,2.80
2023-10-03T18:00:22.864Z,2.77
2023-10-03T18:02:51.666Z,2.90
2023-10-03T18:05:21.161Z,2.60
2023-10-03T18:07:50.110Z,2.73
2023-10-03T18:10:23.701Z,2.90
2023-10-03T18:12:52.734Z,2.87
2023-10-03T18:15:20.945Z,2.50
2023-10-03T18:17:50.518Z,2.57
2023-10-03T18:20:20.285Z,3.20
2023-10-03T18:22:48.308Z,2.47
2023-10-03T18:25:18.144Z,2.70
2023-10-03T18:27:47.633Z,2.50
2023-10-03T18:30:16.650Z,3.30
2023-10-03T18:32:45.078Z,2.53
2023-10-03T18:35:18.684Z,2.20
2023-10-03T18:37:52.194Z,2.30
2023-10-03T18:40:22.468Z,2.23
2023-10-03T18:42:50.745Z,2.10
2023-10-03T18:45:19.765Z,2.90
2023-10-03T18:50:15.227Z,2.60
2023-10-03T18:52:43.372Z,3.07
2023-10-03T18:55:13.433Z,2.63
2023-10-03T18:57:41.691Z,2.57
2023-10-03T19:00:13.212Z,2.17
2023-10-03T19:02:41.918Z,2.37
2023-10-03T19:05:13.077Z,2.50
2023-10-03T19:07:41.206Z,2.17
2023-10-03T19:10:15.422Z,2.27
2023-10-03T19:12:45.350Z,2.40
2023-10-03T19:15:14.181Z,2.70
2023-10-03T19:17:42.533Z,2.60
2023-10-03T19:20:12.315Z,2.40
2023-10-03T19:22:41.225Z,2.93
2023-10-03T19:25:10.717Z,2.70
2023-10-03T19:27:41.931Z,2.70
2023-10-03T19:30:18.200Z,2.20
2023-10-03T19:32:49.362Z,2.23
2023-10-03T19:35:20.325Z,2.20
2023-10-03T19:37:49.028Z,2.47
2023-10-03T19:40:18.179Z,2.67
2023-10-03T19:42:51.006Z,2.47
2023-10-03T19:45:20.744Z,3.13
2023-10-03T19:47:49.198Z,2.87
2023-10-03T19:50:17.905Z,2.30
2023-10-03T19:52:46.470Z,2.63
2023-10-03T19:55:17.181Z,2.60
2023-10-03T19:57:45.540Z,2.50
2023-10-03T20:00:15.746Z,3.40
2023-10-03T20:02:46.146Z,2.73
2023-10-03T20:05:16.269Z,3.13
2023-10-03T20:07:44.424Z,3.03
2023-10-03T20:10:16.734Z,2.40
2023-10-03T20:12:46.009Z,2.70
2023-10-03T20:15:16.580Z,3.00
2023-10-03T20:17:46.358Z,2.60
2023-10-03T20:20:15.444Z,2.80
2023-10-03T20:22:44.710Z,3.00
2023-10-03T20:25:14.307Z,3.03
2023-10-03T20:27:43.514Z,2.87
2023-10-03T20:30:13.116Z,3.10
2023-10-03T20:32:42.521Z,3.40
2023-10-03T20:35:13.263Z,3.43
2023-10-03T20:37:42.128Z,3.30
2023-10-03T20:40:11.097Z,3.10
2023-10-03T20:42:40.099Z,3.60
2023-10-03T20:45:09.572Z,3.33
2023-10-03T20:47:37.732Z,3.43
2023-10-03T20:50:07.316Z,3.30
2023-10-03T20:52:37.794Z,3.40
2023-10-03T20:55:06.617Z,4.00
2023-10-03T20:57:35.099Z,4.00
2023-10-03T21:00:04.237Z,4.10
2023-10-03T21:02:32.292Z,3.73
2023-10-03T21:05:03.540Z,3.80
2023-10-03T21:07:33.152Z,4.00
2023-10-03T21:10:02.779Z,3.93
2023-10-03T21:12:31.051Z,4.53
2023-10-03T21:14:59.463Z,4.50
2023-10-03T21:17:27.977Z,3.90
2023-10-03T21:19:58.085Z,4.13
2023-10-03T21:22:26.026Z,4.10
2023-10-03T21:24:54.027Z,3.60
2023-10-03T21:27:25.519Z,3.83
2023-10-03T21:29:53.800Z,3.90
2023-10-03T21:32:22.303Z,3.20
2023-10-03T21:34:50.307Z,3.90
2023-10-03T21:37:18.337Z,4.07
2023-10-03T21:39:46.319Z,3.63
2023-10-03T21:42:14.387Z,3.80
2023-10-03T21:44:43.790Z,3.60
2023-10-03T21:47:12.065Z,3.83
2023-10-03T21:49:40.119Z,4.60
2023-10-03T21:52:08.479Z,4.27
2023-10-03T21:54:36.499Z,4.20
2023-10-03T21:57:04.606Z,4.00
2023-10-03T21:59:32.657Z,4.43
2023-10-03T22:02:04.144Z,3.80
2023-10-03T22:04:32.112Z,4.30
2023-10-03T22:07:00.221Z,4.50
2023-10-03T22:09:28.432Z,4.57
2023-10-03T22:11:56.472Z,4.60
2023-10-03T22:14:24.472Z,4.70
2023-10-03T22:16:52.794Z,4.20
2023-10-03T22:19:22.183Z,4.20
2023-10-03T22:21:51.689Z,5.07
2023-10-03T22:24:20.083Z,4.80
2023-10-03T22:26:48.180Z,4.40
2023-10-03T22:29:16.149Z,4.90
2023-10-03T22:31:44.246Z,4.83
2023-10-03T22:34:13.193Z,6.13
2023-10-03T22:36:42.899Z,5.47
2023-10-03T22:39:15.174Z,6.70
2023-10-03T22:41:43.342Z,5.40
2023-10-03T22:44:12.236Z,5.40
2023-10-03T22:46:43.078Z,4.90
2023-10-03T22:49:11.206Z,6.10
2023-10-03T22:51:40.301Z,4.50
2023-10-03T22:54:11.052Z,4.40
2023-10-03T22:56:39.060Z,4.33
2023-10-03T22:59:09.621Z,4.33
2023-10-03T23:01:39.160Z,3.97
2023-10-03T23:04:07.590Z,4.00
2023-10-03T23:06:35.670Z,4.43
2023-10-03T23:09:04.220Z,4.00
2023-10-03T23:11:33.660Z,4.67
2023-10-03T23:14:04.057Z,4.33
2023-10-03T23:16:32.737Z,4.37
2023-10-03T23:19:01.283Z,4.23
2023-10-03T23:21:30.284Z,4.50
2023-10-03T23:24:00.706Z,4.73
2023-10-03T23:26:28.906Z,4.70
2023-10-03T23:28:58.776Z,4.20
2023-10-03T23:31:26.821Z,4.13
2023-10-03T23:33:54.831Z,5.10
2023-10-03T23:36:22.842Z,5.10
2023-10-03T23:38:51.060Z,4.63
2023-10-03T23:41:19.092Z,4.93
2023-10-03T23:43:48.399Z,5.30
2023-10-03T23:46:17.823Z,5.83
2023-10-03T23:48:49.022Z,5.73
2023-10-03T23:51:17.748Z,5.63
2023-10-03T23:53:47.652Z,5.00
2023-10-03T23:56:17.579Z,4.73
2023-10-03T23:58:46.229Z,4.43
